sensor_id;sensor_type;location;lat;lon;timestamp;pressure;altitude;pressure_sealevel;temperature
60966;BMP180;46834;51.100;6.886;2022-12-24T00:02:18;100278.00;;;14.50
60966;BMP180;46834;51.100;6.886;2022-12-24T00:04:44;100294.00;;;14.50
60966;BMP180;46834;51.100;6.886;2022-12-24T00:07:10;100288.00;;;14.50
60966;BMP180;46834;51.100;6.886;2022-12-24T00:09:36;100298.00;;;14.50
60966;BMP180;46834;51.100;6.886;2022-12-24T00:12:02;100305.00;;;14.50
60966;BMP180;46834;51.100;6.886;2022-12-24T00:14:28;100303.00;;;14.50
60966;BMP180;46834;51.100;6.886;2022-12-24T00:16:53;100305.00;;;14.50
60966;BMP180;46834;51.100;6.886;2022-12-24T00:19:19;100307.00;;;14.50
60966;BMP180;46834;51.100;6.886;2022-12-24T00:21:45;100322.00;;;14.50
60966;BMP180;46834;51.100;6.886;2022-12-24T00:24:10;100321.00;;;14.40
60966;BMP180;46834;51.100;6.886;2022-12-24T00:26:36;100311.00;;;14.40
60966;BMP180;46834;51.100;6.886;2022-12-24T00:29:02;100315.00;;;14.40
60966;BMP180;46834;51.100;6.886;2022-12-24T00:31:27;100309.00;;;14.40
60966;BMP180;46834;51.100;6.886;2022-12-24T00:33:53;100319.00;;;14.40
60966;BMP180;46834;51.100;6.886;2022-12-24T00:36:19;100318.00;;;14.40
60966;BMP180;46834;51.100;6.886;2022-12-24T00:38:46;100318.00;;;14.40
60966;BMP180;46834;51.100;6.886;2022-12-24T00:41:13;100313.00;;;14.30
60966;BMP180;46834;51.100;6.886;2022-12-24T00:44:05;100304.00;;;14.30
60966;BMP180;46834;51.100;6.886;2022-12-24T00:46:33;100318.00;;;14.30
60966;BMP180;46834;51.100;6.886;2022-12-24T00:49:00;100311.00;;;14.30
60966;BMP180;46834;51.100;6.886;2022-12-24T00:51:26;100332.00;;;14.30
60966;BMP180;46834;51.100;6.886;2022-12-24T00:53:52;100332.00;;;14.30
60966;BMP180;46834;51.100;6.886;2022-12-24T00:56:18;100349.00;;;14.30
60966;BMP180;46834;51.100;6.886;2022-12-24T00:58:44;100343.00;;;14.30
60966;BMP180;46834;51.100;6.886;2022-12-24T01:01:11;100347.00;;;14.30
60966;BMP180;46834;51.100;6.886;2022-12-24T01:03:36;100341.00;;;14.30
60966;BMP180;46834;51.100;6.886;2022-12-24T01:06:07;100335.00;;;14.30
60966;BMP180;46834;51.100;6.886;2022-12-24T01:08:34;100352.00;;;14.30
60966;BMP180;46834;51.100;6.886;2022-12-24T01:11:03;100347.00;;;14.30
60966;BMP180;46834;51.100;6.886;2022-12-24T01:13:29;100363.00;;;14.30
60966;BMP180;46834;51.100;6.886;2022-12-24T01:15:55;100358.00;;;14.30
60966;BMP180;46834;51.100;6.886;2022-12-24T01:18:22;100361.00;;;14.30
60966;BMP180;46834;51.100;6.886;2022-12-24T01:21:00;100358.00;;;14.20
60966;BMP180;46834;51.100;6.886;2022-12-24T01:23:28;100387.00;;;14.30
60966;BMP180;46834;51.100;6.886;2022-12-24T01:25:54;100386.00;;;14.30
60966;BMP180;46834;51.100;6.886;2022-12-24T01:28:20;100369.00;;;14.30
60966;BMP180;46834;51.100;6.886;2022-12-24T01:30:47;100389.00;;;14.30
60966;BMP180;46834;51.100;6.886;2022-12-24T01:33:13;100386.00;;;14.20
60966;BMP180;46834;51.100;6.886;2022-12-24T01:35:41;100396.00;;;14.20
60966;BMP180;46834;51.100;6.886;2022-12-24T01:38:07;100403.00;;;14.20
60966;BMP180;46834;51.100;6.886;2022-12-24T01:40:32;100396.00;;;14.20
60966;BMP180;46834;51.100;6.886;2022-12-24T01:43:20;100398.00;;;14.20
60966;BMP180;46834;51.100;6.886;2022-12-24T01:45:54;100394.00;;;14.20
60966;BMP180;46834;51.100;6.886;2022-12-24T01:48:48;100393.00;;;14.10
60966;BMP180;46834;51.100;6.886;2022-12-24T01:51:51;100397.00;;;14.10
60966;BMP180;46834;51.100;6.886;2022-12-24T01:54:28;100388.00;;;14.10
60966;BMP180;46834;51.100;6.886;2022-12-24T01:57:22;100393.00;;;14.10
60966;BMP180;46834;51.100;6.886;2022-12-24T01:59:54;100384.00;;;14.10
60966;BMP180;46834;51.100;6.886;2022-12-24T02:02:21;100394.00;;;14.10
60966;BMP180;46834;51.100;6.886;2022-12-24T02:05:10;100401.00;;;14.00
60966;BMP180;46834;51.100;6.886;2022-12-24T02:07:37;100405.00;;;14.10
60966;BMP180;46834;51.100;6.886;2022-12-24T02:10:08;100422.00;;;14.00
60966;BMP180;46834;51.100;6.886;2022-12-24T02:12:36;100407.00;;;14.00
60966;BMP180;46834;51.100;6.886;2022-12-24T02:15:06;100401.00;;;14.00
60966;BMP180;46834;51.100;6.886;2022-12-24T02:35:20;100430.00;;;13.80
60966;BMP180;46834;51.100;6.886;2022-12-24T02:37:57;100436.00;;;13.80
60966;BMP180;46834;51.100;6.886;2022-12-24T02:40:30;100446.00;;;13.80
60966;BMP180;46834;51.100;6.886;2022-12-24T02:43:04;100445.00;;;13.80
60966;BMP180;46834;51.100;6.886;2022-12-24T02:45:34;100444.00;;;13.80
60966;BMP180;46834;51.100;6.886;2022-12-24T02:48:01;100460.00;;;13.80
60966;BMP180;46834;51.100;6.886;2022-12-24T02:50:27;100450.00;;;13.80
60966;BMP180;46834;51.100;6.886;2022-12-24T02:52:53;100455.00;;;13.80
60966;BMP180;46834;51.100;6.886;2022-12-24T02:58:23;100457.00;;;13.70
60966;BMP180;46834;51.100;6.886;2022-12-24T03:06:50;100474.00;;;13.70
60966;BMP180;46834;51.100;6.886;2022-12-24T03:09:37;100475.00;;;13.80
60966;BMP180;46834;51.100;6.886;2022-12-24T03:12:11;100470.00;;;13.80
60966;BMP180;46834;51.100;6.886;2022-12-24T03:14:40;100476.00;;;13.80
60966;BMP180;46834;51.100;6.886;2022-12-24T03:17:07;100475.00;;;13.90
60966;BMP180;46834;51.100;6.886;2022-12-24T03:19:35;100459.00;;;13.90
60966;BMP180;46834;51.100;6.886;2022-12-24T03:22:06;100461.00;;;13.90
60966;BMP180;46834;51.100;6.886;2022-12-24T03:24:34;100470.00;;;13.90
60966;BMP180;46834;51.100;6.886;2022-12-24T03:27:01;100476.00;;;13.90
60966;BMP180;46834;51.100;6.886;2022-12-24T03:29:27;100478.00;;;13.90
60966;BMP180;46834;51.100;6.886;2022-12-24T03:32:01;100490.00;;;13.90
60966;BMP180;46834;51.100;6.886;2022-12-24T03:34:27;100487.00;;;13.90
60966;BMP180;46834;51.100;6.886;2022-12-24T03:36:53;100488.00;;;13.90
60966;BMP180;46834;51.100;6.886;2022-12-24T03:39:18;100479.00;;;13.90
60966;BMP180;46834;51.100;6.886;2022-12-24T03:41:44;100482.00;;;13.90
60966;BMP180;46834;51.100;6.886;2022-12-24T03:44:10;100481.00;;;13.90
60966;BMP180;46834;51.100;6.886;2022-12-24T03:46:35;100489.00;;;13.90
60966;BMP180;46834;51.100;6.886;2022-12-24T03:49:01;100476.00;;;13.90
60966;BMP180;46834;51.100;6.886;2022-12-24T03:51:27;100492.00;;;14.00
60966;BMP180;46834;51.100;6.886;2022-12-24T03:53:55;100495.00;;;13.90
60966;BMP180;46834;51.100;6.886;2022-12-24T03:56:22;100502.00;;;13.90
60966;BMP180;46834;51.100;6.886;2022-12-24T03:58:48;100502.00;;;13.90
60966;BMP180;46834;51.100;6.886;2022-12-24T04:01:15;100504.00;;;13.90
60966;BMP180;46834;51.100;6.886;2022-12-24T04:03:41;100508.00;;;13.90
60966;BMP180;46834;51.100;6.886;2022-12-24T04:06:13;100510.00;;;13.90
60966;BMP180;46834;51.100;6.886;2022-12-24T04:08:39;100498.00;;;13.90
60966;BMP180;46834;51.100;6.886;2022-12-24T04:11:10;100513.00;;;13.90
60966;BMP180;46834;51.100;6.886;2022-12-24T04:13:36;100505.00;;;13.90
60966;BMP180;46834;51.100;6.886;2022-12-24T04:16:09;100516.00;;;13.90
60966;BMP180;46834;51.100;6.886;2022-12-24T04:18:36;100512.00;;;13.90
60966;BMP180;46834;51.100;6.886;2022-12-24T04:21:02;100509.00;;;13.90
60966;BMP180;46834;51.100;6.886;2022-12-24T04:23:35;100520.00;;;13.90
60966;BMP180;46834;51.100;6.886;2022-12-24T04:26:03;100517.00;;;13.90
60966;BMP180;46834;51.100;6.886;2022-12-24T04:28:31;100520.00;;;13.90
60966;BMP180;46834;51.100;6.886;2022-12-24T04:31:02;100525.00;;;13.90
60966;BMP180;46834;51.100;6.886;2022-12-24T04:33:28;100523.00;;;13.90
60966;BMP180;46834;51.100;6.886;2022-12-24T04:35:57;100521.00;;;13.90
60966;BMP180;46834;51.100;6.886;2022-12-24T04:38:23;100525.00;;;13.90
60966;BMP180;46834;51.100;6.886;2022-12-24T04:41:09;100523.00;;;13.90
60966;BMP180;46834;51.100;6.886;2022-12-24T04:43:36;100536.00;;;13.90
60966;BMP180;46834;51.100;6.886;2022-12-24T04:46:28;100525.00;;;13.90
60966;BMP180;46834;51.100;6.886;2022-12-24T04:48:58;100540.00;;;13.90
60966;BMP180;46834;51.100;6.886;2022-12-24T04:51:25;100542.00;;;13.90
60966;BMP180;46834;51.100;6.886;2022-12-24T04:53:52;100542.00;;;13.90
60966;BMP180;46834;51.100;6.886;2022-12-24T04:56:22;100527.00;;;13.90
60966;BMP180;46834;51.100;6.886;2022-12-24T04:58:49;100547.00;;;13.90
60966;BMP180;46834;51.100;6.886;2022-12-24T05:01:20;100550.00;;;13.90
60966;BMP180;46834;51.100;6.886;2022-12-24T05:03:46;100542.00;;;13.90
60966;BMP180;46834;51.100;6.886;2022-12-24T05:06:16;100550.00;;;13.90
60966;BMP180;46834;51.100;6.886;2022-12-24T05:08:43;100548.00;;;13.90
60966;BMP180;46834;51.100;6.886;2022-12-24T05:11:09;100560.00;;;13.90
60966;BMP180;46834;51.100;6.886;2022-12-24T05:13:39;100555.00;;;13.90
60966;BMP180;46834;51.100;6.886;2022-12-24T05:16:06;100558.00;;;13.80
60966;BMP180;46834;51.100;6.886;2022-12-24T05:18:32;100566.00;;;13.80
60966;BMP180;46834;51.100;6.886;2022-12-24T05:20:57;100569.00;;;13.80
60966;BMP180;46834;51.100;6.886;2022-12-24T05:23:24;100567.00;;;13.80
60966;BMP180;46834;51.100;6.886;2022-12-24T05:26:30;100570.00;;;13.80
60966;BMP180;46834;51.100;6.886;2022-12-24T05:28:59;100574.00;;;13.80
60966;BMP180;46834;51.100;6.886;2022-12-24T05:31:28;100576.00;;;13.80
60966;BMP180;46834;51.100;6.886;2022-12-24T05:33:54;100590.00;;;13.80
60966;BMP180;46834;51.100;6.886;2022-12-24T05:36:21;100575.00;;;13.80
60966;BMP180;46834;51.100;6.886;2022-12-24T05:38:47;100574.00;;;13.80
60966;BMP180;46834;51.100;6.886;2022-12-24T05:41:12;100595.00;;;13.80
60966;BMP180;46834;51.100;6.886;2022-12-24T05:43:38;100588.00;;;13.80
60966;BMP180;46834;51.100;6.886;2022-12-24T05:46:12;100579.00;;;13.80
60966;BMP180;46834;51.100;6.886;2022-12-24T05:48:37;100583.00;;;13.80
60966;BMP180;46834;51.100;6.886;2022-12-24T05:51:07;100594.00;;;13.80
60966;BMP180;46834;51.100;6.886;2022-12-24T05:53:34;100591.00;;;13.80
60966;BMP180;46834;51.100;6.886;2022-12-24T05:56:12;100597.00;;;13.80
60966;BMP180;46834;51.100;6.886;2022-12-24T05:58:41;100591.00;;;13.80
60966;BMP180;46834;51.100;6.886;2022-12-24T06:01:08;100600.00;;;13.80
60966;BMP180;46834;51.100;6.886;2022-12-24T06:03:35;100594.00;;;13.80
60966;BMP180;46834;51.100;6.886;2022-12-24T06:06:08;100603.00;;;13.80
60966;BMP180;46834;51.100;6.886;2022-12-24T06:08:36;100607.00;;;13.80
60966;BMP180;46834;51.100;6.886;2022-12-24T06:11:08;100606.00;;;13.80
60966;BMP180;46834;51.100;6.886;2022-12-24T06:13:35;100616.00;;;13.80
60966;BMP180;46834;51.100;6.886;2022-12-24T06:16:04;100612.00;;;13.80
60966;BMP180;46834;51.100;6.886;2022-12-24T06:18:32;100615.00;;;13.80
60966;BMP180;46834;51.100;6.886;2022-12-24T06:20:59;100608.00;;;13.80
60966;BMP180;46834;51.100;6.886;2022-12-24T06:23:30;100618.00;;;13.80
60966;BMP180;46834;51.100;6.886;2022-12-24T06:25:59;100618.00;;;13.80
60966;BMP180;46834;51.100;6.886;2022-12-24T06:28:27;100612.00;;;13.80
60966;BMP180;46834;51.100;6.886;2022-12-24T06:30:52;100623.00;;;13.80
60966;BMP180;46834;51.100;6.886;2022-12-24T06:33:21;100621.00;;;13.80
60966;BMP180;46834;51.100;6.886;2022-12-24T06:35:47;100627.00;;;13.80
60966;BMP180;46834;51.100;6.886;2022-12-24T06:38:14;100626.00;;;13.80
60966;BMP180;46834;51.100;6.886;2022-12-24T06:40:42;100629.00;;;13.80
60966;BMP180;46834;51.100;6.886;2022-12-24T06:43:09;100626.00;;;13.80
60966;BMP180;46834;51.100;6.886;2022-12-24T06:45:35;100627.00;;;13.80
60966;BMP180;46834;51.100;6.886;2022-12-24T06:48:01;100637.00;;;13.80
60966;BMP180;46834;51.100;6.886;2022-12-24T06:50:27;100640.00;;;13.80
60966;BMP180;46834;51.100;6.886;2022-12-24T06:52:53;100650.00;;;13.80
60966;BMP180;46834;51.100;6.886;2022-12-24T06:55:18;100654.00;;;13.80
60966;BMP180;46834;51.100;6.886;2022-12-24T06:57:44;100667.00;;;13.80
60966;BMP180;46834;51.100;6.886;2022-12-24T07:00:11;100664.00;;;13.80
60966;BMP180;46834;51.100;6.886;2022-12-24T07:02:42;100672.00;;;13.70
60966;BMP180;46834;51.100;6.886;2022-12-24T07:05:12;100668.00;;;13.80
60966;BMP180;46834;51.100;6.886;2022-12-24T07:07:40;100674.00;;;13.80
60966;BMP180;46834;51.100;6.886;2022-12-24T07:10:11;100660.00;;;13.80
60966;BMP180;46834;51.100;6.886;2022-12-24T07:12:37;100661.00;;;13.80
60966;BMP180;46834;51.100;6.886;2022-12-24T07:15:03;100667.00;;;13.80
60966;BMP180;46834;51.100;6.886;2022-12-24T07:17:29;100669.00;;;13.80
60966;BMP180;46834;51.100;6.886;2022-12-24T07:19:54;100667.00;;;13.80
60966;BMP180;46834;51.100;6.886;2022-12-24T07:22:20;100662.00;;;13.80
60966;BMP180;46834;51.100;6.886;2022-12-24T07:24:46;100677.00;;;13.80
60966;BMP180;46834;51.100;6.886;2022-12-24T07:27:11;100675.00;;;13.80
60966;BMP180;46834;51.100;6.886;2022-12-24T07:29:37;100674.00;;;13.80
60966;BMP180;46834;51.100;6.886;2022-12-24T07:32:03;100674.00;;;13.80
60966;BMP180;46834;51.100;6.886;2022-12-24T07:34:29;100689.00;;;13.80
60966;BMP180;46834;51.100;6.886;2022-12-24T07:36:54;100685.00;;;13.80
60966;BMP180;46834;51.100;6.886;2022-12-24T07:39:20;100694.00;;;13.80
60966;BMP180;46834;51.100;6.886;2022-12-24T07:41:46;100686.00;;;13.80
60966;BMP180;46834;51.100;6.886;2022-12-24T07:44:15;100695.00;;;13.80
60966;BMP180;46834;51.100;6.886;2022-12-24T07:46:41;100704.00;;;13.70
60966;BMP180;46834;51.100;6.886;2022-12-24T07:49:07;100707.00;;;13.80
60966;BMP180;46834;51.100;6.886;2022-12-24T07:51:33;100714.00;;;13.70
60966;BMP180;46834;51.100;6.886;2022-12-24T07:53:59;100718.00;;;13.70
60966;BMP180;46834;51.100;6.886;2022-12-24T07:56:24;100708.00;;;13.70
60966;BMP180;46834;51.100;6.886;2022-12-24T07:58:51;100721.00;;;13.70
60966;BMP180;46834;51.100;6.886;2022-12-24T08:01:17;100729.00;;;13.70
60966;BMP180;46834;51.100;6.886;2022-12-24T08:03:43;100725.00;;;13.70
60966;BMP180;46834;51.100;6.886;2022-12-24T08:06:10;100738.00;;;13.70
60966;BMP180;46834;51.100;6.886;2022-12-24T08:08:36;100722.00;;;13.70
60966;BMP180;46834;51.100;6.886;2022-12-24T08:11:05;100737.00;;;13.70
60966;BMP180;46834;51.100;6.886;2022-12-24T08:13:32;100729.00;;;13.70
60966;BMP180;46834;51.100;6.886;2022-12-24T08:15:58;100733.00;;;13.70
60966;BMP180;46834;51.100;6.886;2022-12-24T08:18:24;100746.00;;;13.70
60966;BMP180;46834;51.100;6.886;2022-12-24T08:20:50;100739.00;;;13.70
60966;BMP180;46834;51.100;6.886;2022-12-24T08:23:16;100743.00;;;13.70
60966;BMP180;46834;51.100;6.886;2022-12-24T08:25:44;100751.00;;;13.70
60966;BMP180;46834;51.100;6.886;2022-12-24T08:28:13;100760.00;;;13.70
60966;BMP180;46834;51.100;6.886;2022-12-24T08:30:39;100760.00;;;13.70
60966;BMP180;46834;51.100;6.886;2022-12-24T08:33:05;100754.00;;;13.70
60966;BMP180;46834;51.100;6.886;2022-12-24T08:35:31;100754.00;;;13.80
60966;BMP180;46834;51.100;6.886;2022-12-24T08:37:57;100763.00;;;13.70
60966;BMP180;46834;51.100;6.886;2022-12-24T08:40:23;100762.00;;;13.80
60966;BMP180;46834;51.100;6.886;2022-12-24T08:42:48;100764.00;;;13.80
60966;BMP180;46834;51.100;6.886;2022-12-24T08:45:14;100766.00;;;13.80
60966;BMP180;46834;51.100;6.886;2022-12-24T08:47:40;100766.00;;;13.80
60966;BMP180;46834;51.100;6.886;2022-12-24T08:50:09;100759.00;;;13.80
60966;BMP180;46834;51.100;6.886;2022-12-24T08:52:35;100765.00;;;13.80
60966;BMP180;46834;51.100;6.886;2022-12-24T08:55:01;100765.00;;;13.80
60966;BMP180;46834;51.100;6.886;2022-12-24T08:57:27;100771.00;;;13.80
60966;BMP180;46834;51.100;6.886;2022-12-24T08:59:53;100771.00;;;13.80
60966;BMP180;46834;51.100;6.886;2022-12-24T09:02:19;100780.00;;;13.80
60966;BMP180;46834;51.100;6.886;2022-12-24T09:04:44;100767.00;;;13.80
60966;BMP180;46834;51.100;6.886;2022-12-24T09:07:10;100781.00;;;13.80
60966;BMP180;46834;51.100;6.886;2022-12-24T09:09:36;100788.00;;;13.80
60966;BMP180;46834;51.100;6.886;2022-12-24T09:12:05;100791.00;;;13.80
60966;BMP180;46834;51.100;6.886;2022-12-24T09:14:31;100788.00;;;13.80
60966;BMP180;46834;51.100;6.886;2022-12-24T09:16:56;100797.00;;;13.80
60966;BMP180;46834;51.100;6.886;2022-12-24T09:19:22;100803.00;;;13.80
60966;BMP180;46834;51.100;6.886;2022-12-24T09:21:48;100805.00;;;13.80
60966;BMP180;46834;51.100;6.886;2022-12-24T09:24:14;100810.00;;;13.80
60966;BMP180;46834;51.100;6.886;2022-12-24T09:26:40;100812.00;;;13.80
60966;BMP180;46834;51.100;6.886;2022-12-24T09:29:07;100825.00;;;13.80
60966;BMP180;46834;51.100;6.886;2022-12-24T09:31:34;100827.00;;;13.80
60966;BMP180;46834;51.100;6.886;2022-12-24T09:33:59;100817.00;;;13.80
60966;BMP180;46834;51.100;6.886;2022-12-24T09:36:26;100833.00;;;13.80
60966;BMP180;46834;51.100;6.886;2022-12-24T09:38:52;100848.00;;;13.80
60966;BMP180;46834;51.100;6.886;2022-12-24T09:44:46;100873.00;;;13.70
60966;BMP180;46834;51.100;6.886;2022-12-24T09:47:33;100863.00;;;13.70
60966;BMP180;46834;51.100;6.886;2022-12-24T09:50:03;100879.00;;;13.80
60966;BMP180;46834;51.100;6.886;2022-12-24T09:52:40;100884.00;;;13.80
60966;BMP180;46834;51.100;6.886;2022-12-24T09:57:39;100859.00;;;13.80
60966;BMP180;46834;51.100;6.886;2022-12-24T10:00:25;100860.00;;;13.80
60966;BMP180;46834;51.100;6.886;2022-12-24T10:02:51;100867.00;;;13.80
60966;BMP180;46834;51.100;6.886;2022-12-24T10:05:37;100862.00;;;13.80
60966;BMP180;46834;51.100;6.886;2022-12-24T10:08:25;100870.00;;;13.80
60966;BMP180;46834;51.100;6.886;2022-12-24T10:11:22;100877.00;;;13.80
60966;BMP180;46834;51.100;6.886;2022-12-24T10:17:12;100880.00;;;13.80
60966;BMP180;46834;51.100;6.886;2022-12-24T10:26:23;100877.00;;;13.80
60966;BMP180;46834;51.100;6.886;2022-12-24T10:31:26;100877.00;;;13.90
60966;BMP180;46834;51.100;6.886;2022-12-24T10:34:13;100887.00;;;13.90
60966;BMP180;46834;51.100;6.886;2022-12-24T10:36:41;100884.00;;;13.90
60966;BMP180;46834;51.100;6.886;2022-12-24T10:39:19;100886.00;;;13.90
60966;BMP180;46834;51.100;6.886;2022-12-24T10:41:50;100876.00;;;14.00
60966;BMP180;46834;51.100;6.886;2022-12-24T10:44:21;100888.00;;;14.00
60966;BMP180;46834;51.100;6.886;2022-12-24T10:46:48;100875.00;;;14.10
60966;BMP180;46834;51.100;6.886;2022-12-24T10:49:34;100891.00;;;14.00
60966;BMP180;46834;51.100;6.886;2022-12-24T10:52:17;100898.00;;;14.10
60966;BMP180;46834;51.100;6.886;2022-12-24T10:57:28;100886.00;;;14.10
60966;BMP180;46834;51.100;6.886;2022-12-24T10:59:55;100888.00;;;14.10
60966;BMP180;46834;51.100;6.886;2022-12-24T11:02:30;100893.00;;;14.10
60966;BMP180;46834;51.100;6.886;2022-12-24T11:04:56;100890.00;;;14.20
60966;BMP180;46834;51.100;6.886;2022-12-24T11:07:27;100878.00;;;14.20
60966;BMP180;46834;51.100;6.886;2022-12-24T11:10:04;100877.00;;;14.10
60966;BMP180;46834;51.100;6.886;2022-12-24T11:12:38;100892.00;;;14.20
60966;BMP180;46834;51.100;6.886;2022-12-24T11:15:26;100893.00;;;14.20
60966;BMP180;46834;51.100;6.886;2022-12-24T11:18:11;100884.00;;;14.20
60966;BMP180;46834;51.100;6.886;2022-12-24T11:20:38;100878.00;;;14.20
60966;BMP180;46834;51.100;6.886;2022-12-24T11:23:04;100886.00;;;14.30
60966;BMP180;46834;51.100;6.886;2022-12-24T11:25:39;100881.00;;;14.30
60966;BMP180;46834;51.100;6.886;2022-12-24T11:28:29;100872.00;;;14.30
60966;BMP180;46834;51.100;6.886;2022-12-24T11:31:18;100884.00;;;14.30
60966;BMP180;46834;51.100;6.886;2022-12-24T11:33:48;100885.00;;;14.30
60966;BMP180;46834;51.100;6.886;2022-12-24T11:36:20;100888.00;;;14.40
60966;BMP180;46834;51.100;6.886;2022-12-24T11:38:56;100893.00;;;14.40
60966;BMP180;46834;51.100;6.886;2022-12-24T11:41:24;100882.00;;;14.40
60966;BMP180;46834;51.100;6.886;2022-12-24T11:44:00;100891.00;;;14.50
60966;BMP180;46834;51.100;6.886;2022-12-24T11:46:42;100884.00;;;14.50
60966;BMP180;46834;51.100;6.886;2022-12-24T11:51:39;100891.00;;;14.70
60966;BMP180;46834;51.100;6.886;2022-12-24T11:54:16;100890.00;;;14.70
60966;BMP180;46834;51.100;6.886;2022-12-24T11:56:50;100883.00;;;14.70
60966;BMP180;46834;51.100;6.886;2022-12-24T11:59:28;100886.00;;;14.80
60966;BMP180;46834;51.100;6.886;2022-12-24T12:02:33;100897.00;;;14.80
60966;BMP180;46834;51.100;6.886;2022-12-24T12:05:18;100875.00;;;14.80
60966;BMP180;46834;51.100;6.886;2022-12-24T12:07:49;100884.00;;;14.90
60966;BMP180;46834;51.100;6.886;2022-12-24T12:10:21;100887.00;;;14.90
60966;BMP180;46834;51.100;6.886;2022-12-24T12:13:02;100888.00;;;14.90
60966;BMP180;46834;51.100;6.886;2022-12-24T12:15:41;100892.00;;;15.00
60966;BMP180;46834;51.100;6.886;2022-12-24T12:18:14;100896.00;;;15.00
60966;BMP180;46834;51.100;6.886;2022-12-24T12:20:46;100896.00;;;15.00
60966;BMP180;46834;51.100;6.886;2022-12-24T12:23:29;100890.00;;;15.00
60966;BMP180;46834;51.100;6.886;2022-12-24T12:26:11;100891.00;;;15.00
60966;BMP180;46834;51.100;6.886;2022-12-24T12:29:24;100911.00;;;15.00
60966;BMP180;46834;51.100;6.886;2022-12-24T12:32:12;100901.00;;;15.00
60966;BMP180;46834;51.100;6.886;2022-12-24T12:37:55;100927.00;;;15.00
60966;BMP180;46834;51.100;6.886;2022-12-24T12:57:59;100937.00;;;15.10
60966;BMP180;46834;51.100;6.886;2022-12-24T13:00:30;100930.00;;;15.20
60966;BMP180;46834;51.100;6.886;2022-12-24T13:09:26;100930.00;;;15.20
60966;BMP180;46834;51.100;6.886;2022-12-24T13:20:32;100936.00;;;15.20
60966;BMP180;46834;51.100;6.886;2022-12-24T13:23:25;100935.00;;;15.20
60966;BMP180;46834;51.100;6.886;2022-12-24T13:25:55;100937.00;;;15.20
60966;BMP180;46834;51.100;6.886;2022-12-24T13:30:50;100945.00;;;15.20
60966;BMP180;46834;51.100;6.886;2022-12-24T13:36:07;100940.00;;;15.20
60966;BMP180;46834;51.100;6.886;2022-12-24T13:54:58;100970.00;;;15.20
60966;BMP180;46834;51.100;6.886;2022-12-24T14:02:55;100958.00;;;15.20
60966;BMP180;46834;51.100;6.886;2022-12-24T14:08:16;100974.00;;;15.20
60966;BMP180;46834;51.100;6.886;2022-12-24T14:11:11;100980.00;;;15.20
60966;BMP180;46834;51.100;6.886;2022-12-24T14:16:27;100980.00;;;15.10
60966;BMP180;46834;51.100;6.886;2022-12-24T14:19:19;100980.00;;;15.10
60966;BMP180;46834;51.100;6.886;2022-12-24T14:24:58;100976.00;;;15.10
60966;BMP180;46834;51.100;6.886;2022-12-24T14:27:38;100976.00;;;15.10
60966;BMP180;46834;51.100;6.886;2022-12-24T14:32:44;100964.00;;;15.20
60966;BMP180;46834;51.100;6.886;2022-12-24T14:35:19;100981.00;;;15.10
60966;BMP180;46834;51.100;6.886;2022-12-24T14:37:51;100977.00;;;15.10
60966;BMP180;46834;51.100;6.886;2022-12-24T14:40:27;100981.00;;;15.10
60966;BMP180;46834;51.100;6.886;2022-12-24T14:43:38;100994.00;;;15.10
60966;BMP180;46834;51.100;6.886;2022-12-24T14:49:18;101000.00;;;15.10
60966;BMP180;46834;51.100;6.886;2022-12-24T14:54:43;101011.00;;;15.00
60966;BMP180;46834;51.100;6.886;2022-12-24T14:59:56;101023.00;;;15.00
60966;BMP180;46834;51.100;6.886;2022-12-24T15:02:45;101028.00;;;15.00
60966;BMP180;46834;51.100;6.886;2022-12-24T15:07:46;101019.00;;;15.00
60966;BMP180;46834;51.100;6.886;2022-12-24T15:10:30;101021.00;;;14.90
60966;BMP180;46834;51.100;6.886;2022-12-24T15:15:49;101039.00;;;14.90
60966;BMP180;46834;51.100;6.886;2022-12-24T15:18:21;101044.00;;;14.90
60966;BMP180;46834;51.100;6.886;2022-12-24T15:20:51;101045.00;;;14.90
60966;BMP180;46834;51.100;6.886;2022-12-24T15:23:21;101057.00;;;14.90
60966;BMP180;46834;51.100;6.886;2022-12-24T15:25:50;101060.00;;;14.90
60966;BMP180;46834;51.100;6.886;2022-12-24T15:28:22;101063.00;;;14.80
60966;BMP180;46834;51.100;6.886;2022-12-24T15:31:06;101054.00;;;14.80
60966;BMP180;46834;51.100;6.886;2022-12-24T15:33:37;101064.00;;;14.80
60966;BMP180;46834;51.100;6.886;2022-12-24T15:36:05;101063.00;;;14.80
60966;BMP180;46834;51.100;6.886;2022-12-24T15:38:39;101066.00;;;14.80
60966;BMP180;46834;51.100;6.886;2022-12-24T15:43:47;101069.00;;;14.70
60966;BMP180;46834;51.100;6.886;2022-12-24T15:46:23;101068.00;;;14.70
60966;BMP180;46834;51.100;6.886;2022-12-24T15:48:51;101072.00;;;14.70
60966;BMP180;46834;51.100;6.886;2022-12-24T15:51:26;101076.00;;;14.60
60966;BMP180;46834;51.100;6.886;2022-12-24T15:54:04;101081.00;;;14.60
60966;BMP180;46834;51.100;6.886;2022-12-24T15:56:41;101085.00;;;14.60
60966;BMP180;46834;51.100;6.886;2022-12-24T16:01:42;101100.00;;;14.60
60966;BMP180;46834;51.100;6.886;2022-12-24T16:04:21;101082.00;;;14.50
60966;BMP180;46834;51.100;6.886;2022-12-24T16:07:02;101081.00;;;14.50
60966;BMP180;46834;51.100;6.886;2022-12-24T16:12:02;101083.00;;;14.50
60966;BMP180;46834;51.100;6.886;2022-12-24T16:14:30;101066.00;;;14.50
60966;BMP180;46834;51.100;6.886;2022-12-24T16:16:56;101065.00;;;14.40
60966;BMP180;46834;51.100;6.886;2022-12-24T16:19:33;101071.00;;;14.40
60966;BMP180;46834;51.100;6.886;2022-12-24T16:22:01;101072.00;;;14.30
60966;BMP180;46834;51.100;6.886;2022-12-24T16:24:47;101074.00;;;14.30
60966;BMP180;46834;51.100;6.886;2022-12-24T16:27:13;101068.00;;;14.30
60966;BMP180;46834;51.100;6.886;2022-12-24T16:29:39;101080.00;;;14.30
60966;BMP180;46834;51.100;6.886;2022-12-24T16:32:05;101070.00;;;14.30
60966;BMP180;46834;51.100;6.886;2022-12-24T16:34:31;101078.00;;;14.20
60966;BMP180;46834;51.100;6.886;2022-12-24T16:36:58;101082.00;;;14.20
60966;BMP180;46834;51.100;6.886;2022-12-24T16:39:30;101081.00;;;14.10
60966;BMP180;46834;51.100;6.886;2022-12-24T16:42:01;101066.00;;;14.10
60966;BMP180;46834;51.100;6.886;2022-12-24T16:44:46;101057.00;;;14.10